createdAt,value
2022-08-30T00:02:46.085Z,100.00
2022-08-30T00:07:47.713Z,100.00
2022-08-30T00:12:49.402Z,100.00
2022-08-30T00:17:50.902Z,100.00
2022-08-30T00:22:52.620Z,100.00
2022-08-30T00:27:54.703Z,100.00
2022-08-30T00:32:56.218Z,100.00
2022-08-30T00:37:58.800Z,100.00
2022-08-30T00:43:05.602Z,100.00
2022-08-30T00:48:07.674Z,100.00
2022-08-30T00:53:13.672Z,100.00
2022-08-30T00:58:21.768Z,100.00
2022-08-30T01:03:23.594Z,100.00
2022-08-30T01:08:25.597Z,100.00
2022-08-30T01:13:28.137Z,100.00
2022-08-30T01:18:31.884Z,100.00
2022-08-30T01:23:36.360Z,100.00
2022-08-30T01:28:40.484Z,100.00
2022-08-30T01:33:42.650Z,100.00
2022-08-30T01:38:51.460Z,100.00
2022-08-30T01:43:56.240Z,100.00
2022-08-30T01:48:58.499Z,100.00
2022-08-30T01:54:00.099Z,100.00
2022-08-30T01:59:03.037Z,100.00
2022-08-30T02:04:06.672Z,100.00
2022-08-30T02:09:08.173Z,100.00
2022-08-30T02:14:09.723Z,100.00
2022-08-30T02:19:11.444Z,100.00
2022-08-30T02:24:14.415Z,100.00
2022-08-30T02:29:15.934Z,99.94
2022-08-30T02:34:18.795Z,99.19
2022-08-30T02:39:20.329Z,98.36
2022-08-30T02:44:21.922Z,98.04
2022-08-30T02:49:33.117Z,97.86
2022-08-30T02:54:35.537Z,97.56
2022-08-30T02:59:41.643Z,97.71
2022-08-30T03:04:44.979Z,97.78
2022-08-30T03:09:46.487Z,97.85
2022-08-30T03:14:48.478Z,98.02
2022-08-30T03:19:50.250Z,98.02
2022-08-30T03:24:51.921Z,98.31
2022-08-30T03:29:53.796Z,98.67
2022-08-30T03:34:55.297Z,98.35
2022-08-30T03:39:57.395Z,99.18
2022-08-30T03:44:58.962Z,99.08
2022-08-30T03:50:00.548Z,99.13
2022-08-30T03:55:02.043Z,99.07
2022-08-30T04:00:05.317Z,98.63
2022-08-30T04:05:07.839Z,98.87
2022-08-30T04:10:09.817Z,98.99
2022-08-30T04:15:11.830Z,98.72
2022-08-30T04:20:13.647Z,99.06
2022-08-30T04:25:15.872Z,99.21
2022-08-30T04:30:18.124Z,99.32
2022-08-30T04:35:19.705Z,99.43
2022-08-30T04:40:21.331Z,99.68
2022-08-30T04:45:23.029Z,99.97
2022-08-30T04:50:24.857Z,100.00
2022-08-30T04:55:26.533Z,99.95
2022-08-30T05:00:28.226Z,100.00
2022-08-30T05:05:41.817Z,100.00
2022-08-30T05:10:47.054Z,100.00
2022-08-30T05:15:48.703Z,100.00
2022-08-30T05:20:50.246Z,100.00
2022-08-30T05:25:51.817Z,100.00
2022-08-30T05:30:53.354Z,100.00
2022-08-30T05:35:54.853Z,100.00
2022-08-30T05:40:56.426Z,100.00
2022-08-30T05:46:03.701Z,100.00
2022-08-30T05:51:11.825Z,100.00
2022-08-30T05:56:15.977Z,99.77
2022-08-30T06:01:26.665Z,98.43
2022-08-30T06:06:28.972Z,97.52
2022-08-30T06:11:30.897Z,96.56
2022-08-30T06:16:32.609Z,94.48
2022-08-30T06:21:37.140Z,92.80
2022-08-30T06:26:46.880Z,91.56
2022-08-30T06:31:49.176Z,90.75
2022-08-30T06:36:50.816Z,89.68
2022-08-30T06:41:52.363Z,88.04
2022-08-30T06:46:53.909Z,87.18
2022-08-30T06:51:55.517Z,85.17
2022-08-30T06:56:58.968Z,84.17
2022-08-30T07:02:00.739Z,83.20
2022-08-30T07:07:02.350Z,81.40
2022-08-30T07:12:04.167Z,79.69
2022-08-30T07:17:27.651Z,79.01
2022-08-30T07:22:33.427Z,77.68
2022-08-30T07:27:35.148Z,77.31
2022-08-30T07:32:38.373Z,75.89
2022-08-30T07:37:39.875Z,75.87
2022-08-30T07:42:41.449Z,73.45
2022-08-30T07:47:42.952Z,73.17
2022-08-30T07:52:44.485Z,73.00
2022-08-30T07:57:46.041Z,73.11
2022-08-30T08:02:47.636Z,71.07
2022-08-30T08:07:49.191Z,70.83
2022-08-30T08:12:52.164Z,71.23
2022-08-30T08:17:53.826Z,71.33
2022-08-30T08:22:55.353Z,71.07
2022-08-30T08:27:57.609Z,70.05
2022-08-30T08:32:59.117Z,69.33
2022-08-30T08:38:00.650Z,69.30
2022-08-30T08:43:17.563Z,69.93
2022-08-30T08:48:35.822Z,69.40
2022-08-30T08:53:57.837Z,68.13
2022-08-30T08:58:59.475Z,67.15
2022-08-30T09:04:10.196Z,67.39
2022-08-30T09:09:11.846Z,67.22
2022-08-30T09:14:19.328Z,66.83
2022-08-30T09:19:45.843Z,66.92
2022-08-30T09:24:50.394Z,65.85
2022-08-30T09:29:53.322Z,64.11
2022-08-30T09:34:55.063Z,63.58
2022-08-30T09:39:57.017Z,61.74
2022-08-30T09:45:10.536Z,62.04
2022-08-30T09:50:24.305Z,61.04
2022-08-30T09:55:35.077Z,59.98
2022-08-30T10:00:44.880Z,59.95
2022-08-30T10:06:02.463Z,60.07
2022-08-30T10:11:20.671Z,58.93
2022-08-30T10:16:35.912Z,57.99
2022-08-30T10:22:01.412Z,58.19
2022-08-30T10:27:29.656Z,59.72
2022-08-30T10:32:52.777Z,58.34
2022-08-30T10:38:03.295Z,59.62
2022-08-30T10:43:13.632Z,58.80
2022-08-30T10:48:24.919Z,58.78
2022-08-30T10:53:36.786Z,58.66
2022-08-30T10:58:42.687Z,58.48
2022-08-30T11:04:04.481Z,58.61
2022-08-30T11:09:28.217Z,57.38
2022-08-30T11:14:30.181Z,57.63
2022-08-30T11:19:41.590Z,55.63
2022-08-30T11:25:09.887Z,56.69
2022-08-30T11:30:27.435Z,55.86
2022-08-30T11:35:55.180Z,54.66
2022-08-30T11:40:56.755Z,54.65
2022-08-30T11:46:16.213Z,55.20
2022-08-30T11:51:31.430Z,54.00
2022-08-30T11:56:44.973Z,53.72
2022-08-30T12:01:51.296Z,54.22
2022-08-30T12:07:00.337Z,53.45
2022-08-30T12:12:12.415Z,53.84
2022-08-30T12:17:43.048Z,53.63
2022-08-30T12:22:45.448Z,52.57
2022-08-30T12:27:47.627Z,52.14
2022-08-30T12:32:51.040Z,52.62
2022-08-30T12:38:01.597Z,51.83
2022-08-30T12:43:22.077Z,51.56
2022-08-30T12:48:28.357Z,51.69
2022-08-30T12:53:42.095Z,51.28
2022-08-30T12:58:52.484Z,50.49
2022-08-30T13:04:26.797Z,50.64
2022-08-30T13:09:38.081Z,49.25
2022-08-30T13:14:43.448Z,48.88
2022-08-30T13:20:19.549Z,48.50
2022-08-30T13:25:21.048Z,48.07
2022-08-30T13:30:22.892Z,49.10
2022-08-30T13:35:25.189Z,48.63
2022-08-30T13:40:26.912Z,49.37
2022-08-30T13:45:43.933Z,48.82
2022-08-30T13:50:45.974Z,49.29
2022-08-30T13:55:48.158Z,49.73
2022-08-30T14:00:50.242Z,49.20
2022-08-30T14:06:21.942Z,48.55
2022-08-30T14:11:21.060Z,47.68
2022-08-30T14:16:29.991Z,48.09
2022-08-30T14:21:31.642Z,47.93
2022-08-30T14:26:39.910Z,47.99
2022-08-30T14:31:42.419Z,48.46
2022-08-30T14:36:46.101Z,48.02
2022-08-30T14:41:51.198Z,48.68
2022-08-30T14:46:53.142Z,48.95
2022-08-30T14:51:55.196Z,48.93
2022-08-30T14:56:57.810Z,48.25
2022-08-30T15:01:59.517Z,48.93
2022-08-30T15:07:01.263Z,48.69
2022-08-30T15:12:03.677Z,49.79
2022-08-30T15:17:05.234Z,51.05
2022-08-30T15:22:07.390Z,52.14
2022-08-30T15:27:10.392Z,52.03
2022-08-30T15:32:11.914Z,53.23
2022-08-30T15:37:16.203Z,53.87
2022-08-30T15:42:21.117Z,54.32
2022-08-30T15:47:23.850Z,54.69
2022-08-30T15:52:26.069Z,54.97
2022-08-30T15:57:28.571Z,55.14
2022-08-30T16:02:30.176Z,55.57
2022-08-30T16:07:31.770Z,56.15
2022-08-30T16:12:33.438Z,56.57
2022-08-30T16:17:35.723Z,57.22
2022-08-30T16:22:38.157Z,57.53
2022-08-30T16:27:42.931Z,57.96
2022-08-30T16:32:45.846Z,58.26
2022-08-30T16:37:47.409Z,58.61
2022-08-30T16:42:50.634Z,59.02
2022-08-30T16:47:52.195Z,59.25
2022-08-30T16:52:54.592Z,59.71
2022-08-30T16:57:58.022Z,59.98
2022-08-30T17:02:59.942Z,60.84
2022-08-30T17:08:01.922Z,61.70
2022-08-30T17:13:05.349Z,62.28
2022-08-30T17:18:07.063Z,62.58
2022-08-30T17:23:09.898Z,63.28
2022-08-30T17:28:11.533Z,63.85
2022-08-30T17:33:14.975Z,64.40
2022-08-30T17:38:19.534Z,65.32
2022-08-30T17:43:21.262Z,65.84
2022-08-30T17:48:22.783Z,66.91
2022-08-30T17:53:24.538Z,67.94
2022-08-30T17:58:26.094Z,69.07
2022-08-30T18:03:28.757Z,70.40
2022-08-30T18:08:30.482Z,70.77
2022-08-30T18:13:32.009Z,71.14
2022-08-30T18:18:33.509Z,72.35
2022-08-30T18:23:35.471Z,72.81
2022-08-30T18:28:37.052Z,73.75
2022-08-30T18:33:38.579Z,74.29
2022-08-30T18:38:42.494Z,74.99
2022-08-30T18:43:44.795Z,75.67
2022-08-30T18:48:47.998Z,76.41
2022-08-30T18:53:49.663Z,77.03
2022-08-30T18:58:51.246Z,77.49
2022-08-30T19:03:52.747Z,77.31
2022-08-30T19:08:54.318Z,77.96
2022-08-30T19:13:55.810Z,77.96
2022-08-30T19:18:57.346Z,77.77
2022-08-30T19:23:59.139Z,78.17
2022-08-30T19:29:02.268Z,77.56
2022-08-30T19:34:03.877Z,77.47
2022-08-30T19:39:05.546Z,76.99
2022-08-30T19:44:07.673Z,76.80
2022-08-30T19:49:11.203Z,76.12
2022-08-30T19:54:12.699Z,76.20
2022-08-30T19:59:14.234Z,75.46
2022-08-30T20:04:16.004Z,75.35
2022-08-30T20:09:22.151Z,75.56
2022-08-30T20:14:23.892Z,75.02
2022-08-30T20:19:27.556Z,74.67
2022-08-30T20:24:29.616Z,74.26
2022-08-30T20:29:31.279Z,73.93
2022-08-30T20:34:33.629Z,74.20
2022-08-30T20:39:35.576Z,73.90
2022-08-30T20:44:37.401Z,74.26
2022-08-30T20:49:39.298Z,73.83
2022-08-30T20:54:40.947Z,73.66
2022-08-30T20:59:42.614Z,73.52
2022-08-30T21:04:44.104Z,72.85
2022-08-30T21:09:45.658Z,72.54
2022-08-30T21:14:47.166Z,72.10
2022-08-30T21:19:48.720Z,71.86
2022-08-30T21:24:50.792Z,71.63
2022-08-30T21:29:52.287Z,71.51
2022-08-30T21:35:20.154Z,71.09
2022-08-30T21:40:21.786Z,70.94
2022-08-30T21:45:23.395Z,70.57
2022-08-30T21:50:24.882Z,70.69
2022-08-30T21:55:26.457Z,70.31
2022-08-30T22:00:27.961Z,69.45
2022-08-30T22:05:29.469Z,69.24
2022-08-30T22:10:33.146Z,68.71
2022-08-30T22:15:34.974Z,68.92
2022-08-30T22:20:36.684Z,67.91
2022-08-30T22:25:38.200Z,66.70
2022-08-30T22:30:39.705Z,66.85
2022-08-30T22:35:41.569Z,66.09
2022-08-30T22:40:48.611Z,66.33
2022-08-30T22:45:50.286Z,66.08
2022-08-30T22:50:51.860Z,66.00
2022-08-30T22:55:53.401Z,66.11
2022-08-30T23:00:55.626Z,66.10
2022-08-30T23:05:57.519Z,66.21
2022-08-30T23:10:59.097Z,66.15
2022-08-30T23:16:04.995Z,66.22
2022-08-30T23:21:13.287Z,66.45
2022-08-30T23:26:33.413Z,66.77
2022-08-30T23:31:53.913Z,66.55
2022-08-30T23:37:13.981Z,66.49
2022-08-30T23:42:34.585Z,66.80
2022-08-30T23:47:54.335Z,66.83
2022-08-30T23:53:14.260Z,66.98
2022-08-30T23:58:35.418Z,67.32
